Главная страница
METAR-TAF:

METAR-TAF

Аэропорты :

Анциранана, Мадагаскар

широта: 12-21S, долгота: 049-18E, высота над уровнем моря: 114 м

Текущие метеонаблюдения

Эта сводка был подготовлена 1 час и 12 минут назад, в 11:00 UTC
Штиль
Температура 24°C
Влажность 100%
Давление 1007 hPa
Видимость: 2000 м
Рассеянная облачность на высоте 1700 фута
дождь,

METAR: FMNA 031100Z 00000KT 2000 RA BKN017 24/24 Q1007

Время: 15:12 (12:12 UTC)


TAF: отсутствует

Метеонаблюдения и прогнозы для более 4000 аэропортов (сводки METAR и TAF).

Имеющиеся станции представлены на карте желтыми и красными точками.

Чтобы увидеть название станции, наведите на нее мышь.

Затем щелкните, чтобы увидеть метеонаблюдения и метеопрогнозы.

Управление картой: чтобы увеличить масштаб, щелкните зеленые кнопки с черным крестиком; чтобы уменьшить масштаб, щелкните зеленую кнопку с тире; для просмотра соседних карт щелкайте зеленые стрелки.


METAR-TAF: